sensor_id;sensor_type;location;lat;lon;timestamp;pressure;altitude;pressure_sealevel;temperature;humidity
62847;BME280;49477;35.676;139.586;2023-08-30T00:01:49;101137.67;;;34.67;40.81
62847;BME280;49477;35.676;139.586;2023-08-30T00:04:19;101140.86;;;34.56;40.73
62847;BME280;49477;35.676;139.586;2023-08-30T00:06:49;101138.78;;;34.61;40.79
62847;BME280;49477;35.676;139.586;2023-08-30T00:09:18;101138.03;;;34.32;40.89
62847;BME280;49477;35.676;139.586;2023-08-30T00:11:48;101137.70;;;34.62;40.94
62847;BME280;49477;35.676;139.586;2023-08-30T00:14:17;101139.36;;;34.86;40.70
62847;BME280;49477;35.676;139.586;2023-08-30T00:16:46;101142.60;;;34.63;40.79
62847;BME280;49477;35.676;139.586;2023-08-30T00:19:16;101140.07;;;34.72;40.68
62847;BME280;49477;35.676;139.586;2023-08-30T00:21:45;101137.36;;;34.90;40.91
62847;BME280;49477;35.676;139.586;2023-08-30T00:24:15;101137.95;;;34.48;40.91
62847;BME280;49477;35.676;139.586;2023-08-30T00:26:44;101131.83;;;34.68;40.71
62847;BME280;49477;35.676;139.586;2023-08-30T00:29:13;101129.14;;;34.75;40.68
62847;BME280;49477;35.676;139.586;2023-08-30T00:31:43;101128.16;;;34.88;40.56
62847;BME280;49477;35.676;139.586;2023-08-30T00:34:12;101124.88;;;34.89;40.48
62847;BME280;49477;35.676;139.586;2023-08-30T00:36:42;101119.96;;;34.41;40.26
62847;BME280;49477;35.676;139.586;2023-08-30T00:39:11;101118.89;;;34.31;39.57
62847;BME280;49477;35.676;139.586;2023-08-30T00:41:41;101110.27;;;34.75;39.38
62847;BME280;49477;35.676;139.586;2023-08-30T00:44:10;101109.74;;;34.83;39.06
62847;BME280;49477;35.676;139.586;2023-08-30T00:46:40;101107.55;;;34.78;38.26
62847;BME280;49477;35.676;139.586;2023-08-30T00:49:09;101107.68;;;34.68;38.57
62847;BME280;49477;35.676;139.586;2023-08-30T00:51:39;101107.40;;;35.13;38.71
62847;BME280;49477;35.676;139.586;2023-08-30T00:54:08;101110.51;;;35.30;38.93
62847;BME280;49477;35.676;139.586;2023-08-30T00:56:38;101104.18;;;34.77;38.36
62847;BME280;49477;35.676;139.586;2023-08-30T00:59:06;101103.66;;;35.19;38.43
62847;BME280;49477;35.676;139.586;2023-08-30T01:01:36;101101.97;;;34.76;38.23
62847;BME280;49477;35.676;139.586;2023-08-30T01:04:06;101101.70;;;34.91;38.00
62847;BME280;49477;35.676;139.586;2023-08-30T01:06:35;101099.34;;;34.78;38.07
62847;BME280;49477;35.676;139.586;2023-08-30T01:09:05;101094.14;;;34.95;38.02
62847;BME280;49477;35.676;139.586;2023-08-30T01:11:40;101090.72;;;35.33;37.97
62847;BME280;49477;35.676;139.586;2023-08-30T01:14:17;101093.23;;;35.45;38.00
62847;BME280;49477;35.676;139.586;2023-08-30T01:16:48;101092.82;;;35.25;38.05
62847;BME280;49477;35.676;139.586;2023-08-30T01:19:42;101088.41;;;35.23;37.73
62847;BME280;49477;35.676;139.586;2023-08-30T01:22:19;101084.31;;;35.48;37.69
62847;BME280;49477;35.676;139.586;2023-08-30T01:25:00;101081.00;;;35.48;37.49
62847;BME280;49477;35.676;139.586;2023-08-30T01:27:35;101083.53;;;35.09;37.63
62847;BME280;49477;35.676;139.586;2023-08-30T01:30:06;101081.95;;;35.40;37.64
62847;BME280;49477;35.676;139.586;2023-08-30T01:32:37;101075.99;;;35.40;37.55
62847;BME280;49477;35.676;139.586;2023-08-30T01:35:08;101072.27;;;35.12;37.66
62847;BME280;49477;35.676;139.586;2023-08-30T01:37:39;101067.41;;;35.88;37.62
62847;BME280;49477;35.676;139.586;2023-08-30T01:40:10;101063.77;;;35.52;37.82
62847;BME280;49477;35.676;139.586;2023-08-30T01:42:40;101059.39;;;35.69;37.74
62847;BME280;49477;35.676;139.586;2023-08-30T01:45:11;101064.08;;;35.82;37.47
62847;BME280;49477;35.676;139.586;2023-08-30T01:47:43;101060.96;;;35.59;37.50
62847;BME280;49477;35.676;139.586;2023-08-30T01:50:13;101049.84;;;35.54;37.93
62847;BME280;49477;35.676;139.586;2023-08-30T01:52:43;101052.25;;;35.62;37.96
62847;BME280;49477;35.676;139.586;2023-08-30T01:55:15;101054.54;;;35.87;37.46
62847;BME280;49477;35.676;139.586;2023-08-30T01:57:44;101052.57;;;35.62;37.44
62847;BME280;49477;35.676;139.586;2023-08-30T02:00:14;101050.33;;;35.60;37.28
62847;BME280;49477;35.676;139.586;2023-08-30T02:02:44;101046.21;;;35.64;37.20
62847;BME280;49477;35.676;139.586;2023-08-30T02:05:13;101051.17;;;36.06;37.36
62847;BME280;49477;35.676;139.586;2023-08-30T02:07:51;101052.38;;;35.83;37.38
62847;BME280;49477;35.676;139.586;2023-08-30T02:10:27;101046.10;;;35.09;37.33
62847;BME280;49477;35.676;139.586;2023-08-30T02:12:57;101048.87;;;35.93;37.32
62847;BME280;49477;35.676;139.586;2023-08-30T02:15:28;101042.95;;;35.57;37.14
62847;BME280;49477;35.676;139.586;2023-08-30T02:17:59;101042.79;;;35.74;37.12
62847;BME280;49477;35.676;139.586;2023-08-30T02:20:29;101043.39;;;35.83;37.20
62847;BME280;49477;35.676;139.586;2023-08-30T02:23:00;101038.99;;;35.93;37.15
62847;BME280;49477;35.676;139.586;2023-08-30T02:25:29;101036.86;;;36.03;37.06
62847;BME280;49477;35.676;139.586;2023-08-30T02:27:58;101040.07;;;35.79;37.27
62847;BME280;49477;35.676;139.586;2023-08-30T02:30:28;101036.92;;;35.48;37.57
62847;BME280;49477;35.676;139.586;2023-08-30T02:32:57;101035.97;;;35.99;37.62
62847;BME280;49477;35.676;139.586;2023-08-30T02:35:27;101027.83;;;35.51;37.55
62847;BME280;49477;35.676;139.586;2023-08-30T02:37:56;101036.33;;;35.62;37.77
62847;BME280;49477;35.676;139.586;2023-08-30T02:40:26;101033.50;;;35.55;37.91
62847;BME280;49477;35.676;139.586;2023-08-30T02:42:55;101031.94;;;35.59;38.09
62847;BME280;49477;35.676;139.586;2023-08-30T02:45:25;101032.35;;;35.53;38.14
62847;BME280;49477;35.676;139.586;2023-08-30T02:47:57;101030.68;;;35.60;38.05
62847;BME280;49477;35.676;139.586;2023-08-30T02:50:26;101031.45;;;35.66;37.61
62847;BME280;49477;35.676;139.586;2023-08-30T02:53:01;101028.76;;;36.02;37.99
62847;BME280;49477;35.676;139.586;2023-08-30T02:55:31;101033.65;;;36.09;37.68
62847;BME280;49477;35.676;139.586;2023-08-30T02:58:01;101030.07;;;35.76;37.76
62847;BME280;49477;35.676;139.586;2023-08-30T03:00:31;101036.75;;;35.67;37.92
62847;BME280;49477;35.676;139.586;2023-08-30T03:03:00;101032.37;;;35.76;37.78
62847;BME280;49477;35.676;139.586;2023-08-30T03:05:31;101039.34;;;36.68;37.59
62847;BME280;49477;35.676;139.586;2023-08-30T03:08:00;101035.54;;;36.15;37.90
62847;BME280;49477;35.676;139.586;2023-08-30T03:10:30;101037.29;;;35.98;37.34
62847;BME280;49477;35.676;139.586;2023-08-30T03:13:00;101038.09;;;36.41;37.77
62847;BME280;49477;35.676;139.586;2023-08-30T03:15:32;101041.12;;;35.82;38.47
62847;BME280;49477;35.676;139.586;2023-08-30T03:18:01;101042.90;;;36.00;38.22
62847;BME280;49477;35.676;139.586;2023-08-30T03:20:30;101039.37;;;35.66;38.27
62847;BME280;49477;35.676;139.586;2023-08-30T03:23:00;101032.52;;;36.03;38.18
62847;BME280;49477;35.676;139.586;2023-08-30T03:25:30;101036.03;;;35.99;38.56
62847;BME280;49477;35.676;139.586;2023-08-30T03:28:01;101028.95;;;36.30;38.32
62847;BME280;49477;35.676;139.586;2023-08-30T03:30:31;101035.18;;;35.61;38.61
62847;BME280;49477;35.676;139.586;2023-08-30T03:33:00;101027.34;;;36.09;38.44
62847;BME280;49477;35.676;139.586;2023-08-30T03:35:33;101033.39;;;35.82;38.46
62847;BME280;49477;35.676;139.586;2023-08-30T03:38:02;101027.05;;;36.27;38.90
62847;BME280;49477;35.676;139.586;2023-08-30T03:40:33;101016.99;;;35.95;38.80
62847;BME280;49477;35.676;139.586;2023-08-30T03:43:03;101022.17;;;36.65;38.41
62847;BME280;49477;35.676;139.586;2023-08-30T03:45:36;101021.17;;;36.22;38.75
62847;BME280;49477;35.676;139.586;2023-08-30T03:48:06;101018.17;;;36.27;38.78
62847;BME280;49477;35.676;139.586;2023-08-30T03:50:35;101017.10;;;36.26;38.83
62847;BME280;49477;35.676;139.586;2023-08-30T03:53:05;101018.92;;;36.26;38.86
62847;BME280;49477;35.676;139.586;2023-08-30T03:55:35;101027.13;;;35.89;39.33
62847;BME280;49477;35.676;139.586;2023-08-30T03:58:05;101020.62;;;36.41;39.17
62847;BME280;49477;35.676;139.586;2023-08-30T04:00:37;101019.01;;;36.07;39.01
62847;BME280;49477;35.676;139.586;2023-08-30T04:03:09;101018.43;;;36.41;38.64
62847;BME280;49477;35.676;139.586;2023-08-30T04:05:43;101018.92;;;36.56;38.53
62847;BME280;49477;35.676;139.586;2023-08-30T04:08:13;101014.74;;;36.38;38.53
62847;BME280;49477;35.676;139.586;2023-08-30T04:10:42;101015.60;;;36.67;38.85
62847;BME280;49477;35.676;139.586;2023-08-30T04:13:12;101017.07;;;36.85;38.60
62847;BME280;49477;35.676;139.586;2023-08-30T04:15:41;101010.28;;;36.73;38.78
62847;BME280;49477;35.676;139.586;2023-08-30T04:18:11;101014.80;;;36.59;38.77
62847;BME280;49477;35.676;139.586;2023-08-30T04:20:46;101012.68;;;36.73;38.59
62847;BME280;49477;35.676;139.586;2023-08-30T04:23:17;101010.08;;;36.69;38.89
62847;BME280;49477;35.676;139.586;2023-08-30T04:25:46;101007.15;;;36.56;38.77
62847;BME280;49477;35.676;139.586;2023-08-30T04:28:16;101001.90;;;36.91;38.62
62847;BME280;49477;35.676;139.586;2023-08-30T04:30:45;101000.99;;;36.60;38.61
62847;BME280;49477;35.676;139.586;2023-08-30T04:33:16;101006.92;;;36.45;38.48
62847;BME280;49477;35.676;139.586;2023-08-30T04:35:49;100998.82;;;36.33;38.57
62847;BME280;49477;35.676;139.586;2023-08-30T04:38:18;100999.45;;;36.68;38.50
62847;BME280;49477;35.676;139.586;2023-08-30T04:40:48;100993.14;;;36.50;38.48
62847;BME280;49477;35.676;139.586;2023-08-30T04:43:18;100990.42;;;36.90;38.21
62847;BME280;49477;35.676;139.586;2023-08-30T04:45:49;100993.76;;;36.80;38.42
62847;BME280;49477;35.676;139.586;2023-08-30T04:48:18;100993.31;;;36.77;38.15
62847;BME280;49477;35.676;139.586;2023-08-30T04:50:47;100995.59;;;36.63;38.51
62847;BME280;49477;35.676;139.586;2023-08-30T04:53:17;100991.80;;;36.72;38.32
62847;BME280;49477;35.676;139.586;2023-08-30T04:55:46;100994.23;;;36.84;38.82
62847;BME280;49477;35.676;139.586;2023-08-30T04:58:16;100990.92;;;36.77;38.70
62847;BME280;49477;35.676;139.586;2023-08-30T05:00:45;100986.19;;;36.57;39.05
62847;BME280;49477;35.676;139.586;2023-08-30T05:03:15;100982.56;;;36.99;38.75
62847;BME280;49477;35.676;139.586;2023-08-30T05:05:46;100997.72;;;36.84;39.06
62847;BME280;49477;35.676;139.586;2023-08-30T05:08:16;101002.44;;;37.00;39.04
62847;BME280;49477;35.676;139.586;2023-08-30T05:10:45;100997.50;;;37.09;38.84
62847;BME280;49477;35.676;139.586;2023-08-30T05:13:17;100995.27;;;37.07;38.74
62847;BME280;49477;35.676;139.586;2023-08-30T05:15:47;101001.25;;;36.86;38.40
62847;BME280;49477;35.676;139.586;2023-08-30T05:18:18;101000.63;;;37.00;38.20
62847;BME280;49477;35.676;139.586;2023-08-30T05:20:46;101000.49;;;36.70;38.07
62847;BME280;49477;35.676;139.586;2023-08-30T05:23:16;101005.56;;;36.82;38.19
62847;BME280;49477;35.676;139.586;2023-08-30T05:25:46;101000.49;;;37.01;37.97
62847;BME280;49477;35.676;139.586;2023-08-30T05:28:15;100999.83;;;37.30;37.60
62847;BME280;49477;35.676;139.586;2023-08-30T05:30:45;101001.38;;;36.94;37.76
62847;BME280;49477;35.676;139.586;2023-08-30T05:33:14;100996.01;;;36.82;37.73
62847;BME280;49477;35.676;139.586;2023-08-30T05:35:45;101008.40;;;36.95;37.51
62847;BME280;49477;35.676;139.586;2023-08-30T05:38:14;101002.72;;;36.82;37.61
62847;BME280;49477;35.676;139.586;2023-08-30T05:40:43;100995.06;;;37.18;37.54
62847;BME280;49477;35.676;139.586;2023-08-30T05:43:14;100990.43;;;37.15;37.58
62847;BME280;49477;35.676;139.586;2023-08-30T05:45:43;100994.66;;;37.29;37.48
62847;BME280;49477;35.676;139.586;2023-08-30T05:48:13;100993.70;;;36.94;37.69
62847;BME280;49477;35.676;139.586;2023-08-30T05:50:43;100987.92;;;37.08;37.61
62847;BME280;49477;35.676;139.586;2023-08-30T05:53:12;100984.16;;;37.34;37.64
62847;BME280;49477;35.676;139.586;2023-08-30T05:55:41;100988.43;;;37.10;37.60
62847;BME280;49477;35.676;139.586;2023-08-30T05:58:16;100986.40;;;36.76;38.15
62847;BME280;49477;35.676;139.586;2023-08-30T06:00:45;100984.80;;;36.87;38.24
62847;BME280;49477;35.676;139.586;2023-08-30T06:03:17;100990.26;;;37.12;37.95
62847;BME280;49477;35.676;139.586;2023-08-30T06:05:46;100983.90;;;37.31;38.08
62847;BME280;49477;35.676;139.586;2023-08-30T06:08:16;100991.06;;;37.12;38.08
62847;BME280;49477;35.676;139.586;2023-08-30T06:10:45;100998.22;;;37.23;37.95
62847;BME280;49477;35.676;139.586;2023-08-30T06:13:15;100996.05;;;37.40;37.66
62847;BME280;49477;35.676;139.586;2023-08-30T06:15:44;101000.43;;;37.37;37.73
62847;BME280;49477;35.676;139.586;2023-08-30T06:18:14;100999.36;;;37.58;37.36
62847;BME280;49477;35.676;139.586;2023-08-30T06:20:43;101004.84;;;37.47;37.45
62847;BME280;49477;35.676;139.586;2023-08-30T06:23:14;100998.21;;;37.54;37.29
62847;BME280;49477;35.676;139.586;2023-08-30T06:25:43;100997.84;;;37.59;37.18
62847;BME280;49477;35.676;139.586;2023-08-30T06:28:13;100997.34;;;37.51;37.24
62847;BME280;49477;35.676;139.586;2023-08-30T06:30:47;100996.42;;;37.07;37.22
62847;BME280;49477;35.676;139.586;2023-08-30T06:33:16;100997.41;;;37.53;37.22
62847;BME280;49477;35.676;139.586;2023-08-30T06:35:48;101001.95;;;37.56;37.35
62847;BME280;49477;35.676;139.586;2023-08-30T06:38:18;101002.02;;;37.44;37.49
62847;BME280;49477;35.676;139.586;2023-08-30T06:40:48;101006.01;;;37.20;37.58
62847;BME280;49477;35.676;139.586;2023-08-30T06:43:17;101001.49;;;37.55;37.61
62847;BME280;49477;35.676;139.586;2023-08-30T06:45:46;100997.81;;;37.30;37.94
62847;BME280;49477;35.676;139.586;2023-08-30T06:48:16;100998.98;;;37.49;38.19
62847;BME280;49477;35.676;139.586;2023-08-30T06:50:45;101001.30;;;37.32;38.04
62847;BME280;49477;35.676;139.586;2023-08-30T06:53:14;101002.66;;;37.30;38.15
62847;BME280;49477;35.676;139.586;2023-08-30T06:55:44;101005.10;;;37.24;38.40
62847;BME280;49477;35.676;139.586;2023-08-30T06:58:13;101006.96;;;37.32;38.12
62847;BME280;49477;35.676;139.586;2023-08-30T07:00:43;101008.64;;;37.55;37.95
62847;BME280;49477;35.676;139.586;2023-08-30T07:03:12;101009.71;;;37.44;37.95
62847;BME280;49477;35.676;139.586;2023-08-30T07:05:42;101008.69;;;37.36;38.21
62847;BME280;49477;35.676;139.586;2023-08-30T07:08:11;101011.40;;;37.40;37.99
62847;BME280;49477;35.676;139.586;2023-08-30T07:10:41;101013.42;;;37.32;38.04
62847;BME280;49477;35.676;139.586;2023-08-30T07:13:10;101015.39;;;37.05;38.23
62847;BME280;49477;35.676;139.586;2023-08-30T07:15:40;101012.19;;;37.30;37.95
62847;BME280;49477;35.676;139.586;2023-08-30T07:18:10;101012.40;;;37.17;37.97
62847;BME280;49477;35.676;139.586;2023-08-30T07:20:40;101016.96;;;37.12;37.72
62847;BME280;49477;35.676;139.586;2023-08-30T07:23:09;101017.05;;;37.31;37.80
62847;BME280;49477;35.676;139.586;2023-08-30T07:25:39;101015.24;;;37.18;37.67
62847;BME280;49477;35.676;139.586;2023-08-30T07:28:08;101007.74;;;37.31;38.09
62847;BME280;49477;35.676;139.586;2023-08-30T07:30:38;101012.32;;;37.20;38.11
62847;BME280;49477;35.676;139.586;2023-08-30T07:33:07;101010.07;;;37.32;38.31
62847;BME280;49477;35.676;139.586;2023-08-30T07:35:36;101011.52;;;36.77;38.15
62847;BME280;49477;35.676;139.586;2023-08-30T07:38:06;101010.48;;;37.21;38.16
62847;BME280;49477;35.676;139.586;2023-08-30T07:40:36;101012.43;;;36.93;38.23
62847;BME280;49477;35.676;139.586;2023-08-30T07:43:05;101016.62;;;37.12;38.34
62847;BME280;49477;35.676;139.586;2023-08-30T07:45:34;101020.94;;;36.95;38.06
62847;BME280;49477;35.676;139.586;2023-08-30T07:48:04;101022.87;;;37.25;37.94
62847;BME280;49477;35.676;139.586;2023-08-30T07:50:33;101029.55;;;37.32;37.81
62847;BME280;49477;35.676;139.586;2023-08-30T07:53:03;101025.98;;;37.21;37.93
62847;BME280;49477;35.676;139.586;2023-08-30T07:55:32;101024.23;;;37.09;38.15
62847;BME280;49477;35.676;139.586;2023-08-30T07:58:02;101028.81;;;36.89;38.11
62847;BME280;49477;35.676;139.586;2023-08-30T08:00:31;101028.53;;;36.92;38.08
62847;BME280;49477;35.676;139.586;2023-08-30T08:03:01;101033.56;;;36.99;38.31
62847;BME280;49477;35.676;139.586;2023-08-30T08:05:30;101031.41;;;36.88;38.47
62847;BME280;49477;35.676;139.586;2023-08-30T08:08:01;101027.25;;;36.89;38.39
62847;BME280;49477;35.676;139.586;2023-08-30T08:10:32;101029.24;;;37.21;38.28
62847;BME280;49477;35.676;139.586;2023-08-30T08:13:02;101027.66;;;36.79;38.44
62847;BME280;49477;35.676;139.586;2023-08-30T08:15:32;101032.14;;;36.48;38.24
62847;BME280;49477;35.676;139.586;2023-08-30T08:18:02;101026.40;;;36.84;38.39
62847;BME280;49477;35.676;139.586;2023-08-30T08:20:31;101030.38;;;36.88;38.32
62847;BME280;49477;35.676;139.586;2023-08-30T08:23:00;101028.98;;;36.74;38.54
62847;BME280;49477;35.676;139.586;2023-08-30T08:25:30;101028.47;;;36.75;38.57
62847;BME280;49477;35.676;139.586;2023-08-30T08:27:59;101030.28;;;36.67;38.68
62847;BME280;49477;35.676;139.586;2023-08-30T08:30:29;101031.17;;;36.73;38.58
62847;BME280;49477;35.676;139.586;2023-08-30T08:32:59;101035.66;;;36.76;38.59
62847;BME280;49477;35.676;139.586;2023-08-30T08:35:28;101036.58;;;36.65;38.89
62847;BME280;49477;35.676;139.586;2023-08-30T08:38:05;101038.03;;;36.69;38.75
62847;BME280;49477;35.676;139.586;2023-08-30T08:40:38;101040.42;;;36.54;39.05
62847;BME280;49477;35.676;139.586;2023-08-30T08:43:08;101043.09;;;36.99;38.63
62847;BME280;49477;35.676;139.586;2023-08-30T08:45:39;101045.05;;;36.49;38.66
62847;BME280;49477;35.676;139.586;2023-08-30T08:48:10;101048.09;;;36.53;38.77
62847;BME280;49477;35.676;139.586;2023-08-30T08:50:41;101047.31;;;36.62;38.49
62847;BME280;49477;35.676;139.586;2023-08-30T08:53:12;101053.77;;;36.82;38.60
62847;BME280;49477;35.676;139.586;2023-08-30T08:55:42;101051.04;;;36.62;38.79
62847;BME280;49477;35.676;139.586;2023-08-30T08:58:12;101056.03;;;36.44;38.99
62847;BME280;49477;35.676;139.586;2023-08-30T09:00:44;101058.38;;;36.60;38.82
62847;BME280;49477;35.676;139.586;2023-08-30T09:03:14;101061.96;;;36.61;38.74
62847;BME280;49477;35.676;139.586;2023-08-30T09:05:43;101072.19;;;36.30;39.08
62847;BME280;49477;35.676;139.586;2023-08-30T09:08:15;101074.76;;;36.15;39.33
62847;BME280;49477;35.676;139.586;2023-08-30T09:10:45;101067.73;;;36.32;39.57
62847;BME280;49477;35.676;139.586;2023-08-30T09:13:14;101068.43;;;36.29;39.80
62847;BME280;49477;35.676;139.586;2023-08-30T09:15:44;101069.68;;;36.18;39.98
62847;BME280;49477;35.676;139.586;2023-08-30T09:18:17;101078.53;;;36.16;40.10
62847;BME280;49477;35.676;139.586;2023-08-30T09:20:47;101080.54;;;36.00;40.28
62847;BME280;49477;35.676;139.586;2023-08-30T09:23:20;101080.75;;;35.93;40.20
62847;BME280;49477;35.676;139.586;2023-08-30T09:25:56;101086.22;;;35.94;40.29
62847;BME280;49477;35.676;139.586;2023-08-30T09:28:25;101083.32;;;35.82;39.99
62847;BME280;49477;35.676;139.586;2023-08-30T09:30:56;101089.03;;;36.03;39.79
62847;BME280;49477;35.676;139.586;2023-08-30T09:33:32;101096.27;;;35.33;40.48
62847;BME280;49477;35.676;139.586;2023-08-30T09:36:02;101097.73;;;35.63;40.27
62847;BME280;49477;35.676;139.586;2023-08-30T09:38:31;101101.98;;;35.20;40.54
62847;BME280;49477;35.676;139.586;2023-08-30T09:41:08;101106.49;;;35.94;40.37
62847;BME280;49477;35.676;139.586;2023-08-30T09:43:43;101108.40;;;35.56;40.32
62847;BME280;49477;35.676;139.586;2023-08-30T09:46:12;101110.52;;;35.60;40.30
62847;BME280;49477;35.676;139.586;2023-08-30T09:48:42;101117.15;;;35.28;41.10
62847;BME280;49477;35.676;139.586;2023-08-30T09:51:12;101110.09;;;35.83;41.00
62847;BME280;49477;35.676;139.586;2023-08-30T09:53:46;101112.45;;;35.32;41.03
62847;BME280;49477;35.676;139.586;2023-08-30T09:56:20;101115.06;;;35.49;40.76
62847;BME280;49477;35.676;139.586;2023-08-30T09:58:51;101118.06;;;35.57;40.99
62847;BME280;49477;35.676;139.586;2023-08-30T10:01:22;101122.77;;;34.78;41.49
62847;BME280;49477;35.676;139.586;2023-08-30T10:03:52;101123.88;;;35.35;41.15
62847;BME280;49477;35.676;139.586;2023-08-30T10:06:25;101130.15;;;35.31;41.21
62847;BME280;49477;35.676;139.586;2023-08-30T10:08:56;101135.31;;;35.29;41.11
62847;BME280;49477;35.676;139.586;2023-08-30T10:11:25;101138.22;;;35.33;41.00
62847;BME280;49477;35.676;139.586;2023-08-30T10:13:56;101143.83;;;35.40;41.23
62847;BME280;49477;35.676;139.586;2023-08-30T10:16:28;101149.88;;;35.10;41.33
62847;BME280;49477;35.676;139.586;2023-08-30T10:19:03;101148.56;;;35.08;41.25
62847;BME280;49477;35.676;139.586;2023-08-30T10:21:36;101150.19;;;35.04;41.25
62847;BME280;49477;35.676;139.586;2023-08-30T10:24:07;101150.61;;;35.51;41.43
62847;BME280;49477;35.676;139.586;2023-08-30T10:26:39;101146.75;;;35.37;42.06
62847;BME280;49477;35.676;139.586;2023-08-30T10:29:11;101153.23;;;34.89;42.00
62847;BME280;49477;35.676;139.586;2023-08-30T10:31:41;101157.41;;;35.35;41.96
62847;BME280;49477;35.676;139.586;2023-08-30T10:34:16;101156.89;;;34.85;42.44
62847;BME280;49477;35.676;139.586;2023-08-30T10:36:45;101157.16;;;34.87;42.83
62847;BME280;49477;35.676;139.586;2023-08-30T10:39:34;101166.83;;;35.15;42.65
62847;BME280;49477;35.676;139.586;2023-08-30T10:42:09;101169.94;;;35.03;42.70
62847;BME280;49477;35.676;139.586;2023-08-30T10:44:48;101171.74;;;34.74;43.41
62847;BME280;49477;35.676;139.586;2023-08-30T10:47:22;101175.18;;;34.90;43.50
62847;BME280;49477;35.676;139.586;2023-08-30T10:49:53;101177.64;;;34.78;43.15
62847;BME280;49477;35.676;139.586;2023-08-30T10:52:23;101182.15;;;34.24;43.79
62847;BME280;49477;35.676;139.586;2023-08-30T10:55:04;101180.54;;;35.01;43.13
62847;BME280;49477;35.676;139.586;2023-08-30T10:57:33;101180.57;;;34.69;43.53
62847;BME280;49477;35.676;139.586;2023-08-30T11:00:07;101182.37;;;34.99;43.34
62847;BME280;49477;35.676;139.586;2023-08-30T11:02:38;101182.87;;;35.07;43.12
62847;BME280;49477;35.676;139.586;2023-08-30T11:05:08;101184.04;;;34.75;43.48
62847;BME280;49477;35.676;139.586;2023-08-30T11:07:37;101183.03;;;34.69;43.04
62847;BME280;49477;35.676;139.586;2023-08-30T11:10:07;101184.78;;;34.90;43.99
62847;BME280;49477;35.676;139.586;2023-08-30T11:12:36;101186.94;;;34.76;43.72
62847;BME280;49477;35.676;139.586;2023-08-30T11:15:09;101187.68;;;34.77;43.74
62847;BME280;49477;35.676;139.586;2023-08-30T11:17:39;101186.71;;;34.92;44.11
62847;BME280;49477;35.676;139.586;2023-08-30T11:20:09;101191.60;;;34.59;44.37
62847;BME280;49477;35.676;139.586;2023-08-30T11:22:41;101192.62;;;34.36;44.25
62847;BME280;49477;35.676;139.586;2023-08-30T11:25:12;101195.08;;;34.62;44.32
62847;BME280;49477;35.676;139.586;2023-08-30T11:27:41;101198.48;;;34.80;43.81
62847;BME280;49477;35.676;139.586;2023-08-30T11:30:11;101202.06;;;34.72;43.94
62847;BME280;49477;35.676;139.586;2023-08-30T11:32:42;101204.76;;;34.44;44.76
62847;BME280;49477;35.676;139.586;2023-08-30T11:35:11;101206.89;;;34.38;44.87
62847;BME280;49477;35.676;139.586;2023-08-30T11:37:41;101213.94;;;34.39;44.97
62847;BME280;49477;35.676;139.586;2023-08-30T11:40:12;101216.19;;;34.47;44.83
62847;BME280;49477;35.676;139.586;2023-08-30T11:42:44;101218.69;;;34.34;45.11
62847;BME280;49477;35.676;139.586;2023-08-30T11:45:15;101218.89;;;34.58;45.37
62847;BME280;49477;35.676;139.586;2023-08-30T11:47:45;101224.45;;;34.10;45.80
62847;BME280;49477;35.676;139.586;2023-08-30T11:50:14;101229.46;;;34.36;45.88
62847;BME280;49477;35.676;139.586;2023-08-30T11:52:44;101229.10;;;34.28;45.43
62847;BME280;49477;35.676;139.586;2023-08-30T11:55:13;101232.11;;;34.12;45.95
62847;BME280;49477;35.676;139.586;2023-08-30T11:57:45;101232.48;;;34.22;45.58
62847;BME280;49477;35.676;139.586;2023-08-30T12:00:20;101229.26;;;34.46;45.93
62847;BME280;49477;35.676;139.586;2023-08-30T12:02:49;101231.66;;;34.10;45.74
62847;BME280;49477;35.676;139.586;2023-08-30T12:05:19;101231.40;;;33.94;45.96
62847;BME280;49477;35.676;139.586;2023-08-30T12:07:48;101231.36;;;33.94;45.92
62847;BME280;49477;35.676;139.586;2023-08-30T12:10:19;101231.56;;;34.45;45.84
62847;BME280;49477;35.676;139.586;2023-08-30T12:12:48;101232.60;;;34.09;45.47
62847;BME280;49477;35.676;139.586;2023-08-30T12:15:18;101229.64;;;33.96;45.75
62847;BME280;49477;35.676;139.586;2023-08-30T12:17:47;101232.09;;;34.13;45.87
62847;BME280;49477;35.676;139.586;2023-08-30T12:20:18;101232.17;;;33.92;46.22
62847;BME280;49477;35.676;139.586;2023-08-30T12:22:47;101232.28;;;34.09;46.00
62847;BME280;49477;35.676;139.586;2023-08-30T12:25:19;101237.63;;;34.05;46.27
62847;BME280;49477;35.676;139.586;2023-08-30T12:27:49;101236.47;;;34.20;46.03
62847;BME280;49477;35.676;139.586;2023-08-30T12:30:19;101236.61;;;33.89;46.39
62847;BME280;49477;35.676;139.586;2023-08-30T12:32:48;101236.34;;;34.27;45.96
62847;BME280;49477;35.676;139.586;2023-08-30T12:35:17;101238.22;;;33.91;46.21
62847;BME280;49477;35.676;139.586;2023-08-30T12:37:46;101230.28;;;33.69;46.64
62847;BME280;49477;35.676;139.586;2023-08-30T12:40:16;101235.35;;;33.92;46.12
62847;BME280;49477;35.676;139.586;2023-08-30T12:42:45;101237.67;;;34.23;45.91
62847;BME280;49477;35.676;139.586;2023-08-30T12:45:16;101240.15;;;34.07;46.33
62847;BME280;49477;35.676;139.586;2023-08-30T12:47:45;101241.24;;;33.92;46.13